createdAt,value
2022-11-16T00:01:38.226Z,99678.47
2022-11-16T00:04:05.978Z,99690.69
2022-11-16T00:06:33.487Z,99689.47
2022-11-16T00:09:20.624Z,99680.22
2022-11-16T00:11:51.189Z,99683.66
2022-11-16T00:14:19.118Z,99689.06
2022-11-16T00:16:48.284Z,99684.88
2022-11-16T00:19:15.933Z,99694.28
2022-11-16T00:21:43.526Z,99682.47
2022-11-16T00:24:13.883Z,99687.50
2022-11-16T00:26:41.429Z,99689.31
2022-11-16T00:29:14.490Z,99683.84
2022-11-16T00:31:42.119Z,99690.69
2022-11-16T00:34:11.068Z,99690.28
2022-11-16T00:36:38.615Z,99688.25
2022-11-16T00:39:06.178Z,99667.03
2022-11-16T00:41:33.724Z,99681.47
2022-11-16T00:44:01.242Z,99679.06
2022-11-16T00:46:28.754Z,99687.44
2022-11-16T00:48:56.283Z,99674.44
2022-11-16T00:51:25.136Z,99677.41
2022-11-16T00:53:52.748Z,99670.22
2022-11-16T00:56:20.311Z,99670.00
2022-11-16T00:58:47.838Z,99667.56
2022-11-16T01:01:15.811Z,99664.16
2022-11-16T01:03:43.562Z,99657.72
2022-11-16T01:06:13.761Z,99663.34
2022-11-16T01:08:43.996Z,99673.38
2022-11-16T01:11:32.788Z,99670.59
2022-11-16T01:14:02.488Z,99670.19
2022-11-16T01:16:30.587Z,99661.13
2022-11-16T01:18:58.191Z,99657.91
2022-11-16T01:21:25.917Z,99658.09
2022-11-16T01:23:55.691Z,99654.50
2022-11-16T01:26:23.203Z,99650.06
2022-11-16T01:28:50.705Z,99648.59
2022-11-16T01:31:18.238Z,99644.84
2022-11-16T01:33:45.747Z,99649.66
2022-11-16T01:36:15.254Z,99656.50
2022-11-16T01:38:43.840Z,99641.41
2022-11-16T01:41:15.759Z,99649.47
2022-11-16T01:43:55.779Z,99644.44
2022-11-16T01:46:23.609Z,99644.44
2022-11-16T01:48:55.432Z,99633.00
2022-11-16T01:51:23.854Z,99646.25
2022-11-16T01:53:51.763Z,99637.78
2022-11-16T01:56:21.371Z,99644.03
2022-11-16T01:58:50.137Z,99634.00
2022-11-16T02:01:17.554Z,99640.63
2022-11-16T02:03:45.216Z,99641.41
2022-11-16T02:06:28.701Z,99635.41
2022-11-16T02:09:37.418Z,99625.56
2022-11-16T02:12:27.432Z,99633.78
2022-11-16T02:15:07.981Z,99631.59
2022-11-16T02:17:46.625Z,99628.78
2022-11-16T02:20:25.364Z,99626.75
2022-11-16T02:23:09.069Z,99626.56
2022-11-16T02:25:45.003Z,99627.91
2022-11-16T02:28:29.345Z,99620.72
2022-11-16T02:31:01.285Z,99625.75
2022-11-16T02:33:35.880Z,99616.72
2022-11-16T02:36:06.442Z,99630.75
2022-11-16T02:38:38.269Z,99625.31
2022-11-16T02:41:11.003Z,99619.94
2022-11-16T02:43:42.111Z,99621.09
2022-11-16T02:46:16.240Z,99621.06
2022-11-16T02:48:48.850Z,99628.72
2022-11-16T02:51:18.111Z,99629.16
2022-11-16T02:54:00.192Z,99631.34
2022-11-16T02:56:28.150Z,99622.66
2022-11-16T02:58:56.392Z,99629.31
2022-11-16T03:01:33.659Z,99628.09
2022-11-16T03:04:07.772Z,99629.72
2022-11-16T03:06:39.413Z,99633.94
2022-11-16T03:09:11.764Z,99632.25
2022-11-16T03:12:00.546Z,99632.69
2022-11-16T03:14:34.527Z,99631.31
2022-11-16T03:17:06.786Z,99629.84
2022-11-16T03:19:40.631Z,99624.88
2022-11-16T03:22:13.232Z,99618.13
2022-11-16T03:24:42.556Z,99619.47
2022-11-16T03:27:22.132Z,99623.28
2022-11-16T03:30:00.292Z,99629.53
2022-11-16T03:32:34.989Z,99629.16
2022-11-16T03:35:08.692Z,99623.56
2022-11-16T03:37:37.501Z,99624.34
2022-11-16T03:40:05.916Z,99626.31
2022-11-16T03:42:34.315Z,99637.53
2022-11-16T03:45:04.023Z,99633.91
2022-11-16T03:47:32.979Z,99635.53
2022-11-16T03:50:00.606Z,99634.38
2022-11-16T03:52:28.324Z,99630.78
2022-11-16T03:54:55.927Z,99635.16
2022-11-16T03:57:23.491Z,99643.84
2022-11-16T03:59:51.097Z,99640.03
2022-11-16T04:02:18.680Z,99636.84
2022-11-16T04:05:05.228Z,99640.31
2022-11-16T04:07:50.340Z,99638.09
2022-11-16T04:10:37.919Z,99638.09
2022-11-16T04:13:23.154Z,99635.75
2022-11-16T04:16:08.460Z,99644.19
2022-11-16T04:18:53.820Z,99640.75
2022-11-16T04:21:44.067Z,99647.59
2022-11-16T04:24:16.049Z,99650.81
2022-11-16T04:27:03.656Z,99650.59
2022-11-16T04:29:31.709Z,99648.00
2022-11-16T04:32:17.140Z,99650.25
2022-11-16T04:35:02.914Z,99647.00
2022-11-16T04:37:48.679Z,99648.00
2022-11-16T04:40:17.004Z,99660.66
2022-11-16T04:42:44.596Z,99655.44
2022-11-16T04:45:29.577Z,99657.22
2022-11-16T04:47:57.159Z,99662.66
2022-11-16T04:50:24.700Z,99664.28
2022-11-16T04:52:53.633Z,99661.91
2022-11-16T04:55:21.177Z,99668.16
2022-11-16T04:57:48.784Z,99669.53
2022-11-16T05:00:17.325Z,99658.28
2022-11-16T05:02:44.905Z,99662.56
2022-11-16T05:05:12.461Z,99664.38
2022-11-16T05:07:40.059Z,99659.94
2022-11-16T05:10:10.045Z,99647.50
2022-11-16T05:12:37.968Z,99665.53
2022-11-16T05:15:06.609Z,99660.97
2022-11-16T05:17:34.707Z,99664.38
2022-11-16T05:20:19.670Z,99672.84
2022-11-16T05:22:53.561Z,99671.63
2022-11-16T05:25:22.537Z,99669.06
2022-11-16T05:27:50.169Z,99672.25
2022-11-16T05:30:18.300Z,99675.25
2022-11-16T05:32:45.889Z,99671.63
2022-11-16T05:35:13.529Z,99659.84
2022-11-16T05:37:41.501Z,99679.28
2022-11-16T05:40:10.136Z,99676.88
2022-11-16T05:42:39.047Z,99684.50
2022-11-16T05:45:07.553Z,99692.13
2022-11-16T05:47:35.154Z,99689.31
2022-11-16T05:50:02.743Z,99692.75
2022-11-16T05:52:30.334Z,99700.97
2022-11-16T05:54:57.861Z,99696.56
2022-11-16T05:57:25.391Z,99694.94
2022-11-16T05:59:54.264Z,99675.31
2022-11-16T06:02:21.807Z,99696.75
2022-11-16T06:04:49.298Z,99694.75
2022-11-16T06:07:16.938Z,99704.16
2022-11-16T06:09:44.706Z,99704.59
2022-11-16T06:12:12.259Z,99700.97
2022-11-16T06:14:39.791Z,99702.97
2022-11-16T06:17:08.688Z,99693.38
2022-11-16T06:19:36.327Z,99694.16
2022-11-16T06:22:03.911Z,99702.59
2022-11-16T06:24:31.495Z,99701.56
2022-11-16T06:26:59.411Z,99697.97
2022-11-16T06:29:26.961Z,99692.34
2022-11-16T06:31:54.536Z,99706.19
2022-11-16T06:34:23.441Z,99703.00
2022-11-16T06:36:51.049Z,99708.38
2022-11-16T06:39:18.592Z,99700.56
2022-11-16T06:41:46.204Z,99703.59
2022-11-16T06:44:13.753Z,99716.81
2022-11-16T06:46:41.273Z,99714.19
2022-11-16T06:49:09.009Z,99717.19
2022-11-16T06:51:37.896Z,99713.59
2022-11-16T06:54:06.217Z,99713.97
2022-11-16T06:56:34.959Z,99719.38
2022-11-16T06:59:02.506Z,99731.00
2022-11-16T07:01:30.168Z,99723.97
2022-11-16T07:03:57.940Z,99724.16
2022-11-16T07:06:25.498Z,99730.16
2022-11-16T07:08:54.351Z,99729.94
2022-11-16T07:11:21.761Z,99734.91
2022-11-16T07:13:49.407Z,99738.50
2022-11-16T07:16:16.980Z,99741.34
2022-11-16T07:18:44.611Z,99749.28
2022-11-16T07:21:13.965Z,99741.88
2022-11-16T07:23:41.905Z,99744.47
2022-11-16T07:26:12.321Z,99749.66
2022-11-16T07:28:44.878Z,99755.25
2022-11-16T07:31:16.185Z,99760.47
2022-11-16T07:33:43.756Z,99756.44
2022-11-16T07:36:14.700Z,99768.44
2022-11-16T07:38:42.664Z,99775.66
2022-11-16T07:41:13.221Z,99774.06
2022-11-16T07:43:40.811Z,99779.22
2022-11-16T07:48:59.214Z,99785.41
2022-11-16T07:51:26.829Z,99789.97
2022-11-16T07:53:56.224Z,99792.59
2022-11-16T07:56:25.709Z,99796.88
2022-11-16T07:58:53.282Z,99794.47
2022-11-16T08:01:20.896Z,99793.22
2022-11-16T08:03:48.507Z,99801.84
2022-11-16T08:06:18.414Z,99796.81
2022-11-16T08:08:46.020Z,99799.66
2022-11-16T08:11:14.008Z,99798.44
2022-11-16T08:13:44.042Z,99811.88
2022-11-16T08:16:13.961Z,99795.38
2022-11-16T08:18:42.763Z,99808.22
2022-11-16T08:21:11.757Z,99815.03
2022-11-16T08:23:40.212Z,99813.63
2022-11-16T08:26:09.322Z,99814.41
2022-11-16T08:28:37.888Z,99824.44
2022-11-16T08:31:10.436Z,99820.84
2022-11-16T08:33:38.272Z,99822.84
2022-11-16T08:36:12.544Z,99823.09
2022-11-16T08:38:41.506Z,99786.56
2022-11-16T08:41:09.278Z,99813.28
2022-11-16T08:43:39.372Z,99819.69
2022-11-16T08:46:08.707Z,99820.31
2022-11-16T08:48:36.735Z,99824.53
2022-11-16T08:51:21.110Z,99828.13
2022-11-16T08:53:49.605Z,99827.94
2022-11-16T08:56:18.949Z,99824.34
2022-11-16T08:58:47.912Z,99798.63
2022-11-16T09:01:19.422Z,99826.56
2022-11-16T09:03:47.711Z,99816.56
2022-11-16T09:06:15.793Z,99818.97
2022-11-16T09:08:45.817Z,99822.56
2022-11-16T09:11:15.898Z,99810.16
2022-11-16T09:13:44.239Z,99823.38
2022-11-16T09:16:12.002Z,99826.22
2022-11-16T09:18:40.986Z,99825.97
2022-11-16T09:21:08.574Z,99819.78
2022-11-16T09:23:36.592Z,99827.03
2022-11-16T09:26:05.706Z,99820.47
2022-11-16T09:28:34.131Z,99830.50
2022-11-16T09:31:04.169Z,99833.94
2022-11-16T09:33:32.950Z,99836.03
2022-11-16T09:36:07.829Z,99839.63
2022-11-16T09:39:03.210Z,99843.66
2022-11-16T09:41:38.426Z,99840.84
2022-11-16T09:44:17.243Z,99837.34
2022-11-16T09:46:49.293Z,99838.69
2022-11-16T09:49:22.344Z,99838.06
2022-11-16T09:51:55.005Z,99849.75
2022-11-16T09:54:25.705Z,99843.34
2022-11-16T09:56:58.539Z,99849.72
2022-11-16T09:59:29.274Z,99853.72
2022-11-16T10:02:01.970Z,99855.16
2022-11-16T10:04:39.166Z,99854.13
2022-11-16T10:07:15.032Z,99850.31
2022-11-16T10:09:43.218Z,99856.56
2022-11-16T10:12:22.353Z,99844.94
2022-11-16T10:15:23.489Z,99850.31
2022-11-16T10:18:02.124Z,99852.16
2022-11-16T10:20:46.076Z,99843.31
2022-11-16T10:23:23.488Z,99845.72
2022-11-16T10:25:54.646Z,99847.16
2022-11-16T10:28:39.093Z,99838.13
2022-11-16T10:31:18.232Z,99851.63
2022-11-16T10:33:49.589Z,99844.19
2022-11-16T10:36:18.514Z,99847.81
2022-11-16T10:38:47.855Z,99846.44
2022-11-16T10:41:19.992Z,99820.13
2022-11-16T10:43:49.503Z,99837.19
2022-11-16T10:46:21.925Z,99826.59
2022-11-16T10:48:58.706Z,99829.00
2022-11-16T10:51:26.318Z,99830.59
2022-11-16T10:53:55.997Z,99833.00
2022-11-16T10:56:26.805Z,99833.44
2022-11-16T10:58:59.319Z,99838.81
2022-11-16T11:01:33.374Z,99839.84
2022-11-16T11:04:16.315Z,99838.63
2022-11-16T11:06:44.664Z,99835.63
2022-11-16T11:09:23.560Z,99829.41
2022-11-16T11:12:16.883Z,99827.41
2022-11-16T11:14:59.686Z,99828.78
2022-11-16T11:17:27.790Z,99831.63
2022-11-16T11:20:00.405Z,99827.19
2022-11-16T11:22:28.575Z,99835.84
2022-11-16T11:24:57.620Z,99833.22
2022-11-16T11:27:27.906Z,99829.00
2022-11-16T11:29:58.601Z,99821.38
2022-11-16T11:32:33.331Z,99816.94
2022-11-16T11:35:01.793Z,99813.34
2022-11-16T11:37:33.032Z,99814.75
2022-11-16T11:40:24.026Z,99815.94
2022-11-16T11:42:59.857Z,99821.78
2022-11-16T11:45:39.412Z,99819.34
2022-11-16T11:48:23.592Z,99818.72
2022-11-16T11:50:54.542Z,99810.84
2022-11-16T11:53:40.693Z,99805.63
2022-11-16T11:56:13.018Z,99813.88
2022-11-16T11:58:42.618Z,99816.66
2022-11-16T12:01:35.952Z,99819.25
2022-11-16T12:04:37.826Z,99817.00
2022-11-16T12:07:12.630Z,99819.25
2022-11-16T12:09:46.489Z,99822.06
2022-11-16T12:12:29.584Z,99826.72
2022-11-16T12:15:08.021Z,99827.69
2022-11-16T12:17:47.007Z,99813.88
2022-11-16T12:20:35.244Z,99815.06
2022-11-16T12:23:18.824Z,99830.38
2022-11-16T12:25:55.666Z,99821.94
2022-11-16T12:28:38.829Z,99831.38
2022-11-16T12:31:27.790Z,99823.72
2022-11-16T12:34:00.773Z,99820.06
2022-11-16T12:36:38.255Z,99821.25
2022-11-16T12:39:22.736Z,99818.41
2022-11-16T12:42:25.308Z,99808.72
2022-11-16T12:45:13.344Z,99807.34
2022-11-16T12:47:56.187Z,99804.00
2022-11-16T12:50:38.817Z,99803.19
2022-11-16T12:53:20.046Z,99789.72
2022-11-16T12:55:57.485Z,99792.53
2022-11-16T12:58:35.752Z,99787.16
2022-11-16T13:01:12.092Z,99791.56
2022-11-16T13:03:43.897Z,99791.38
2022-11-16T13:06:17.805Z,99787.31
2022-11-16T13:08:51.935Z,99793.56
2022-11-16T13:11:23.706Z,99790.75
2022-11-16T13:13:57.108Z,99768.88
2022-11-16T13:16:27.182Z,99777.31
2022-11-16T13:18:55.951Z,99784.13
2022-11-16T13:21:29.665Z,99783.16
2022-11-16T13:24:08.845Z,99788.00
2022-11-16T13:26:42.934Z,99772.97
2022-11-16T13:29:20.955Z,99784.38
2022-11-16T13:31:56.617Z,99790.00
2022-11-16T13:34:28.175Z,99789.00
2022-11-16T13:36:56.039Z,99766.72
2022-11-16T13:40:02.404Z,99790.41
2022-11-16T13:42:31.557Z,99785.53
2022-11-16T13:45:08.231Z,99793.56
2022-11-16T13:47:38.515Z,99782.72
2022-11-16T13:50:17.604Z,99776.28
2022-11-16T13:53:36.357Z,99775.25
2022-11-16T13:55:39.632Z,99775.06
2022-11-16T13:58:10.354Z,99768.00
2022-11-16T14:00:40.736Z,99768.06
2022-11-16T14:03:32.363Z,99760.44
2022-11-16T14:06:00.366Z,99756.25
2022-11-16T14:08:48.994Z,99757.25
2022-11-16T14:11:29.960Z,99765.25
2022-11-16T14:14:01.157Z,99756.47
2022-11-16T14:16:49.391Z,99743.41
2022-11-16T14:19:56.037Z,99746.22
2022-11-16T14:22:46.432Z,99749.88
2022-11-16T14:25:30.192Z,99748.69
2022-11-16T14:28:09.758Z,99744.66
2022-11-16T14:30:54.110Z,99720.41
2022-11-16T14:33:32.119Z,99744.09
2022-11-16T14:36:03.347Z,99737.88
2022-11-16T14:38:34.296Z,99738.06
2022-11-16T14:41:04.313Z,99735.69
2022-11-16T14:43:37.037Z,99732.69
2022-11-16T14:46:08.541Z,99728.84
2022-11-16T14:48:44.450Z,99718.22
2022-11-16T14:51:17.524Z,99717.22
2022-11-16T14:53:50.191Z,99724.25
2022-11-16T14:56:19.562Z,99721.47
2022-11-16T14:58:55.364Z,99715.84
2022-11-16T15:01:25.769Z,99701.97
2022-11-16T15:04:02.255Z,99710.59
2022-11-16T15:06:42.605Z,99705.19
2022-11-16T15:09:17.725Z,99703.38
2022-11-16T15:12:06.843Z,99705.78
2022-11-16T15:14:41.398Z,99695.97
2022-11-16T15:17:09.783Z,99685.72
2022-11-16T15:19:37.455Z,99693.34
2022-11-16T15:22:17.595Z,99689.13
2022-11-16T15:24:45.246Z,99680.72
2022-11-16T15:27:24.354Z,99674.13
2022-11-16T15:29:52.059Z,99676.09
2022-11-16T15:32:19.839Z,99672.31
2022-11-16T15:34:50.910Z,99670.91
2022-11-16T15:37:29.532Z,99664.50
2022-11-16T15:39:58.354Z,99658.66
2022-11-16T15:42:27.056Z,99653.88
2022-11-16T15:44:55.370Z,99654.47
2022-11-16T15:47:24.622Z,99639.63
2022-11-16T15:49:53.777Z,99632.59
2022-11-16T15:52:44.855Z,99624.19
2022-11-16T15:55:40.384Z,99625.81
2022-11-16T15:58:14.959Z,99623.97
2022-11-16T16:00:43.195Z,99625.19
2022-11-16T16:03:21.524Z,99616.78
2022-11-16T16:05:50.575Z,99601.53
2022-11-16T16:08:29.901Z,99600.75
2022-11-16T16:11:06.759Z,99608.34
2022-11-16T16:13:36.920Z,99619.75
2022-11-16T16:16:30.216Z,99613.56
2022-11-16T16:19:06.525Z,99615.97
2022-11-16T16:21:47.888Z,99622.56
2022-11-16T16:24:39.949Z,99614.16
2022-11-16T16:27:13.186Z,99617.13
2022-11-16T16:29:40.853Z,99609.91
2022-11-16T16:32:13.541Z,99603.09
2022-11-16T16:34:42.396Z,99592.47
2022-11-16T16:37:12.796Z,99592.47
2022-11-16T16:39:42.089Z,99599.88
2022-11-16T16:42:11.496Z,99605.28
2022-11-16T16:44:39.146Z,99606.69
2022-11-16T16:47:06.898Z,99602.25
2022-11-16T16:49:34.476Z,99593.44
2022-11-16T16:52:02.106Z,99580.63
2022-11-16T16:54:29.668Z,99583.44
2022-11-16T16:57:01.242Z,99575.00
2022-11-16T16:59:30.110Z,99592.03
2022-11-16T17:01:57.842Z,99586.22
2022-11-16T17:04:25.942Z,99583.63
2022-11-16T17:06:54.112Z,99574.59
2022-11-16T17:09:21.766Z,99579.63
2022-11-16T17:11:49.407Z,99576.00
2022-11-16T17:14:19.761Z,99570.19
2022-11-16T17:16:47.379Z,99573.63
2022-11-16T17:19:14.952Z,99575.00
2022-11-16T17:21:42.555Z,99549.94
2022-11-16T17:24:10.397Z,99570.19
2022-11-16T17:26:37.962Z,99574.38
2022-11-16T17:29:05.635Z,99565.75
2022-11-16T17:31:34.534Z,99580.38
2022-11-16T17:34:02.068Z,99584.19
2022-11-16T17:36:29.612Z,99585.94
2022-11-16T17:38:57.986Z,99576.16
2022-11-16T17:41:25.765Z,99579.38
2022-11-16T17:43:54.599Z,99570.13
2022-11-16T17:46:23.364Z,99560.59
2022-11-16T17:48:52.172Z,99557.31
2022-11-16T17:51:21.468Z,99558.56
2022-11-16T17:53:50.099Z,99553.72
2022-11-16T17:56:19.173Z,99550.31
2022-11-16T17:58:47.289Z,99553.75
2022-11-16T18:01:15.239Z,99545.69
2022-11-16T18:03:42.962Z,99541.13
2022-11-16T18:06:14.244Z,99530.91
2022-11-16T18:08:43.493Z,99549.28
2022-11-16T18:11:12.831Z,99538.09
2022-11-16T18:13:40.396Z,99552.13
2022-11-16T18:16:11.645Z,99548.72
2022-11-16T18:18:39.769Z,99543.91
2022-11-16T18:21:09.046Z,99518.44
2022-11-16T18:23:39.099Z,99542.72
2022-11-16T18:26:08.986Z,99541.75
2022-11-16T18:28:36.846Z,99545.34
2022-11-16T18:31:05.159Z,99545.34
2022-11-16T18:33:33.578Z,99545.81
2022-11-16T18:36:01.457Z,99536.19
2022-11-16T18:38:29.039Z,99536.78
2022-11-16T18:41:14.953Z,99532.56
2022-11-16T18:43:48.269Z,99527.75
2022-11-16T18:46:15.919Z,99521.75
2022-11-16T18:48:43.590Z,99511.16
2022-11-16T18:51:11.743Z,99514.13
2022-11-16T18:53:39.371Z,99512.34
2022-11-16T18:56:09.656Z,99513.56
2022-11-16T18:58:53.431Z,99510.53
2022-11-16T19:01:23.319Z,99502.53
2022-11-16T19:03:51.741Z,99492.75
2022-11-16T19:06:19.848Z,99492.31
2022-11-16T19:08:53.969Z,99483.34
2022-11-16T19:11:25.097Z,99485.94
2022-11-16T19:13:54.952Z,99480.13
2022-11-16T19:16:23.770Z,99469.34
2022-11-16T19:18:51.371Z,99454.53
2022-11-16T19:21:19.858Z,99452.72
2022-11-16T19:23:49.114Z,99428.47
2022-11-16T19:26:18.414Z,99443.50
2022-11-16T19:28:49.075Z,99435.13
2022-11-16T19:31:18.596Z,99424.31
2022-11-16T19:33:46.806Z,99424.50
2022-11-16T19:36:15.967Z,99411.69
2022-11-16T19:38:46.111Z,99417.69
2022-11-16T19:41:15.434Z,99400.06
2022-11-16T19:43:43.300Z,99404.69
2022-11-16T19:46:16.367Z,99393.69
2022-11-16T19:48:44.999Z,99393.06
2022-11-16T19:51:14.355Z,99392.28
2022-11-16T19:53:42.334Z,99380.44
2022-11-16T19:56:12.135Z,99375.03
2022-11-16T19:58:39.938Z,99371.84
2022-11-16T20:01:09.273Z,99366.03
2022-11-16T20:03:38.887Z,99359.63
2022-11-16T20:06:08.521Z,99351.63
2022-11-16T20:08:36.565Z,99352.03
2022-11-16T20:11:11.702Z,99339.97
2022-11-16T20:13:39.497Z,99335.75
2022-11-16T20:16:08.496Z,99329.16
2022-11-16T20:18:36.187Z,99327.97
2022-11-16T20:21:06.248Z,99319.94
2022-11-16T20:23:35.464Z,99319.13
2022-11-16T20:26:06.964Z,99316.31
2022-11-16T20:28:36.005Z,99318.72
2022-11-16T20:31:05.302Z,99321.72
2022-11-16T20:33:34.258Z,99326.53
2022-11-16T20:36:03.165Z,99318.72
2022-11-16T20:38:33.249Z,99311.50
2022-11-16T20:41:09.098Z,99310.09
2022-11-16T20:43:39.162Z,99303.09
2022-11-16T20:46:07.351Z,99294.06
2022-11-16T20:48:35.270Z,99290.66
2022-11-16T20:51:03.147Z,99296.06
2022-11-16T20:53:32.924Z,99276.84
2022-11-16T20:56:02.437Z,99277.88
2022-11-16T20:58:30.495Z,99262.47
2022-11-16T21:01:00.860Z,99275.84
2022-11-16T21:03:28.985Z,99276.81
2022-11-16T21:05:56.774Z,99262.22
2022-11-16T21:08:26.568Z,99252.56
2022-11-16T21:10:55.606Z,99250.16
2022-11-16T21:13:40.971Z,99239.31
2022-11-16T21:16:11.378Z,99234.72
2022-11-16T21:18:39.664Z,99220.72
2022-11-16T21:21:08.529Z,99220.84
2022-11-16T21:23:37.063Z,99219.63
2022-11-16T21:26:08.758Z,99209.22
2022-11-16T21:28:36.337Z,99213.22
2022-11-16T21:31:06.544Z,99197.25
2022-11-16T21:33:34.557Z,99197.16
2022-11-16T21:36:04.988Z,99199.31
2022-11-16T21:38:33.145Z,99200.72
2022-11-16T21:41:01.254Z,99189.28
2022-11-16T21:43:30.191Z,99176.06
2022-11-16T21:46:03.051Z,99175.06
2022-11-16T21:48:32.589Z,99160.69
2022-11-16T21:51:01.203Z,99161.03
2022-11-16T21:53:28.747Z,99148.66
2022-11-16T21:55:56.459Z,99141.41
2022-11-16T21:58:24.492Z,99133.38
2022-11-16T22:00:56.355Z,99138.41
2022-11-16T22:03:24.563Z,99128.97
2022-11-16T22:06:13.633Z,99127.97
2022-11-16T22:08:41.894Z,99115.72
2022-11-16T22:11:10.715Z,99110.72
2022-11-16T22:13:38.749Z,99098.84
2022-11-16T22:16:10.353Z,99085.59
2022-11-16T22:18:38.613Z,99096.00
2022-11-16T22:21:06.962Z,99084.00
2022-11-16T22:23:35.872Z,99079.03
2022-11-16T22:26:04.522Z,99072.00
2022-11-16T22:28:33.564Z,99059.81
2022-11-16T22:31:02.411Z,99049.19
2022-11-16T22:33:31.437Z,99041.41
2022-11-16T22:35:59.135Z,99034.19
2022-11-16T22:38:27.442Z,99027.25
2022-11-16T22:40:56.691Z,99019.66
2022-11-16T22:43:25.655Z,99013.84
2022-11-16T22:45:57.306Z,99009.59
2022-11-16T22:48:28.889Z,99004.03
2022-11-16T22:51:04.484Z,98998.00
2022-11-16T22:53:32.367Z,98986.00
2022-11-16T22:56:08.285Z,98980.84
2022-11-16T22:58:36.041Z,98962.34
2022-11-16T23:01:03.781Z,98961.59
2022-11-16T23:03:31.673Z,98947.22
2022-11-16T23:05:59.612Z,98944.75
2022-11-16T23:08:29.178Z,98932.72
2022-11-16T23:11:33.563Z,98914.28
2022-11-16T23:14:19.654Z,98927.41
2022-11-16T23:16:47.687Z,98919.28
2022-11-16T23:19:34.430Z,98913.66
2022-11-16T23:22:19.622Z,98903.50
2022-11-16T23:25:05.972Z,98903.16
2022-11-16T23:27:41.681Z,98892.78
2022-11-16T23:30:12.858Z,98890.06
2022-11-16T23:32:41.120Z,98878.78
2022-11-16T23:35:09.531Z,98870.03
2022-11-16T23:37:50.739Z,98870.72
2022-11-16T23:40:19.685Z,98854.16
2022-11-16T23:43:05.001Z,98832.47
2022-11-16T23:45:32.565Z,98810.41
2022-11-16T23:48:00.185Z,98815.69
2022-11-16T23:50:27.843Z,98801.53
2022-11-16T23:52:55.460Z,98788.22
2022-11-16T23:55:24.479Z,98783.81
2022-11-16T23:57:52.141Z,98765.09
